createdAt,value
2022-11-02T00:01:42.848Z,999.88
2022-11-02T00:08:21.094Z,999.85
2022-11-02T00:13:19.517Z,999.73
2022-11-02T00:18:20.466Z,999.75
2022-11-02T00:23:27.342Z,999.83
2022-11-02T00:28:19.645Z,999.76
2022-11-02T00:33:20.589Z,999.74
2022-11-02T00:38:19.339Z,999.84
2022-11-02T00:43:19.424Z,999.89
2022-11-02T00:48:22.409Z,999.91
2022-11-02T00:53:28.416Z,999.92
2022-11-02T00:58:22.624Z,999.90
2022-11-02T01:03:20.568Z,999.80
2022-11-02T01:08:30.880Z,999.85
2022-11-02T01:13:19.243Z,999.87
2022-11-02T01:18:19.369Z,999.81
2022-11-02T01:23:31.345Z,999.76
2022-11-02T01:30:03.160Z,999.91
2022-11-02T01:36:42.066Z,999.93
2022-11-02T01:41:42.211Z,999.84
2022-11-02T01:46:54.150Z,999.75
2022-11-02T01:51:42.345Z,999.83
2022-11-02T01:56:42.044Z,999.80
2022-11-02T02:01:42.246Z,999.80
2022-11-02T02:06:42.284Z,999.83
2022-11-02T02:12:03.570Z,999.82
2022-11-02T02:16:41.832Z,999.82
2022-11-02T02:34:42.891Z,999.89
2022-11-02T02:44:47.908Z,999.91
2022-11-02T02:53:09.477Z,999.90
2022-11-02T02:58:21.692Z,999.91
2022-11-02T03:03:07.961Z,999.91
2022-11-02T03:08:08.848Z,999.82
2022-11-02T03:13:08.271Z,999.91
2022-11-02T03:18:07.572Z,1000.03
2022-11-02T03:26:51.339Z,1000.16
2022-11-02T03:31:39.775Z,1000.26
2022-11-02T03:36:39.419Z,1000.38
2022-11-02T03:41:44.477Z,1000.35
2022-11-02T03:46:38.814Z,1000.37
2022-11-02T03:51:49.819Z,1000.40
2022-11-02T03:59:52.199Z,1000.46
2022-11-02T04:08:52.076Z,1000.70
2022-11-02T04:15:22.789Z,1000.78
2022-11-02T04:20:23.369Z,1000.75
2022-11-02T04:25:22.778Z,1000.80
2022-11-02T04:30:25.352Z,1000.84
2022-11-02T04:35:21.835Z,1000.95
2022-11-02T04:40:52.276Z,1000.92
2022-11-02T04:45:36.399Z,1000.95
2022-11-02T04:50:23.985Z,1001.01
2022-11-02T05:01:40.723Z,1001.22
2022-11-02T05:06:20.221Z,1001.26
2022-11-02T05:11:19.645Z,1001.20
2022-11-02T05:16:19.012Z,1001.25
2022-11-02T05:21:18.978Z,1001.27
2022-11-02T05:26:19.411Z,1001.23
2022-11-02T05:31:18.758Z,1001.35
2022-11-02T05:36:19.995Z,1001.42
2022-11-02T05:41:23.726Z,1001.39
2022-11-02T05:46:18.530Z,1001.40
2022-11-02T05:51:18.549Z,1001.46
2022-11-02T05:56:24.597Z,1001.50
2022-11-02T06:01:23.894Z,1001.57
2022-11-02T06:06:18.314Z,1001.62
2022-11-02T06:11:18.236Z,1001.62
2022-11-02T06:16:22.765Z,1001.84
2022-11-02T06:21:19.375Z,1001.83
2022-11-02T06:26:18.183Z,1001.87
2022-11-02T06:31:18.237Z,1002.00
2022-11-02T06:36:18.421Z,1002.06
2022-11-02T06:41:18.000Z,1002.25
2022-11-02T06:46:19.075Z,1002.30
2022-11-02T06:51:31.026Z,1002.43
2022-11-02T06:56:19.069Z,1002.55
2022-11-02T07:01:19.333Z,1002.61
2022-11-02T07:06:24.352Z,1002.69
2022-11-02T07:11:22.476Z,1002.94
2022-11-02T07:16:21.819Z,1003.00
2022-11-02T07:23:26.862Z,1003.21
2022-11-02T07:28:28.519Z,1003.21
2022-11-02T07:33:25.563Z,1003.20
2022-11-02T07:38:26.779Z,1003.30
2022-11-02T07:43:27.294Z,1003.45
2022-11-02T07:51:54.620Z,1003.56
2022-11-02T07:56:56.134Z,1003.63
2022-11-02T08:01:53.981Z,1003.60
2022-11-02T08:06:52.202Z,1003.71
2022-11-02T08:11:53.668Z,1003.84
2022-11-02T08:16:55.001Z,1003.91
2022-11-02T08:22:03.274Z,1003.92
2022-11-02T08:26:55.051Z,1004.03
2022-11-02T08:32:13.870Z,1003.94
2022-11-02T08:37:17.360Z,1003.99
2022-11-02T08:41:52.521Z,1003.95
2022-11-02T08:47:22.761Z,1004.09
2022-11-02T08:51:53.952Z,1004.14
2022-11-02T08:56:56.806Z,1004.21
2022-11-02T09:01:54.233Z,1004.25
2022-11-02T09:06:55.393Z,1004.28
2022-11-02T09:11:54.792Z,1004.37
2022-11-02T09:16:56.553Z,1004.54
2022-11-02T09:22:13.416Z,1004.51
2022-11-02T09:26:51.855Z,1004.55
2022-11-02T09:32:00.332Z,1004.58
2022-11-02T09:36:57.425Z,1004.69
2022-11-02T09:41:53.561Z,1004.64
2022-11-02T09:47:17.969Z,1004.80
2022-11-02T09:51:52.401Z,1004.82
2022-11-02T09:56:53.266Z,1004.79
2022-11-02T10:01:52.344Z,1004.77
2022-11-02T10:06:51.110Z,1004.67
2022-11-02T10:11:57.131Z,1004.62
2022-11-02T10:16:51.084Z,1004.74
2022-11-02T10:21:55.575Z,1004.73
2022-11-02T10:26:50.802Z,1004.81
2022-11-02T10:31:50.671Z,1004.78
2022-11-02T10:36:50.645Z,1004.70
2022-11-02T10:41:51.728Z,1004.71
2022-11-02T10:46:50.517Z,1004.62
2022-11-02T10:51:50.849Z,1004.62
2022-11-02T10:56:51.065Z,1004.76
2022-11-02T11:01:50.471Z,1004.75
2022-11-02T11:06:50.249Z,1004.72
2022-11-02T11:11:50.715Z,1005.05
2022-11-02T11:16:51.235Z,1004.92
2022-11-02T11:21:50.080Z,1004.93
2022-11-02T11:26:50.179Z,1004.85
2022-11-02T11:31:49.970Z,1004.98
2022-11-02T11:36:50.098Z,1004.86
2022-11-02T11:41:51.349Z,1004.86
2022-11-02T11:46:50.360Z,1004.81
2022-11-02T11:51:50.208Z,1004.84
2022-11-02T11:56:49.923Z,1004.88
2022-11-02T12:01:50.109Z,1004.74
2022-11-02T12:06:49.587Z,1004.82
2022-11-02T12:15:21.795Z,1004.79
2022-11-02T12:20:21.592Z,1004.76
2022-11-02T12:25:21.572Z,1004.69
2022-11-02T12:30:21.484Z,1004.68
2022-11-02T12:35:30.080Z,1004.62
2022-11-02T12:40:22.422Z,1004.68
2022-11-02T12:45:21.330Z,1004.75
2022-11-02T12:50:21.267Z,1004.79
2022-11-02T12:55:21.208Z,1004.74
2022-11-02T13:00:21.169Z,1004.71
2022-11-02T13:05:21.175Z,1004.64
2022-11-02T13:10:21.042Z,1004.82
2022-11-02T13:15:21.021Z,1004.79
2022-11-02T13:20:20.951Z,1004.74
2022-11-02T13:25:20.887Z,1004.78
2022-11-02T13:30:20.836Z,1004.63
2022-11-02T13:35:20.794Z,1004.56
2022-11-02T13:40:20.720Z,1004.64
2022-11-02T13:45:20.750Z,1004.67
2022-11-02T13:50:20.645Z,1004.59
2022-11-02T13:55:20.567Z,1004.54
2022-11-02T14:00:20.512Z,1004.58
2022-11-02T14:05:20.447Z,1004.64
2022-11-02T14:10:20.390Z,1004.56
2022-11-02T14:15:20.339Z,1004.53
2022-11-02T14:20:20.282Z,1004.42
2022-11-02T14:25:20.223Z,1004.50
2022-11-02T14:30:20.221Z,1004.42
2022-11-02T14:35:20.125Z,1004.41
2022-11-02T14:40:20.048Z,1004.34
2022-11-02T14:45:20.030Z,1004.40
2022-11-02T14:50:19.953Z,1004.26
2022-11-02T14:55:19.897Z,1004.36
2022-11-02T15:00:19.869Z,1004.33
2022-11-02T15:05:19.806Z,1004.24
2022-11-02T15:10:19.746Z,1004.19
2022-11-02T15:15:19.680Z,1004.14
2022-11-02T15:20:19.640Z,1004.10
2022-11-02T15:25:19.597Z,1004.11
2022-11-02T15:30:22.590Z,1004.17
2022-11-02T15:35:20.480Z,1004.07
2022-11-02T15:40:19.436Z,1003.94
2022-11-02T15:45:42.197Z,1004.01
2022-11-02T15:50:20.298Z,1003.99
2022-11-02T15:55:19.262Z,1003.96
2022-11-02T16:00:19.184Z,1004.03
2022-11-02T16:05:19.163Z,1004.05
2022-11-02T16:10:19.078Z,1004.03
2022-11-02T16:15:19.031Z,1004.07
2022-11-02T16:20:18.968Z,1004.06
2022-11-02T16:25:18.915Z,1004.07
2022-11-02T16:30:18.874Z,1003.97
2022-11-02T16:35:18.803Z,1003.92
2022-11-02T16:40:18.752Z,1003.92
2022-11-02T16:45:18.733Z,1003.99
2022-11-02T16:50:18.643Z,1004.05
2022-11-02T16:55:19.614Z,1004.18
2022-11-02T17:00:18.550Z,1004.18
2022-11-02T17:05:18.495Z,1004.11
2022-11-02T17:10:18.530Z,1004.10
2022-11-02T17:15:18.412Z,1004.08
2022-11-02T17:20:18.353Z,1004.04
2022-11-02T17:25:18.312Z,1004.01
2022-11-02T17:30:18.218Z,1003.94
2022-11-02T17:35:20.869Z,1003.94
2022-11-02T17:40:19.096Z,1003.81
2022-11-02T17:45:18.055Z,1003.86
2022-11-02T17:50:18.006Z,1003.90
2022-11-02T17:55:17.987Z,1003.88
2022-11-02T18:00:17.880Z,1003.89
2022-11-02T18:05:17.828Z,1003.92
2022-11-02T18:10:17.770Z,1003.92
2022-11-02T18:20:47.484Z,1003.86
2022-11-02T18:25:48.629Z,1003.68
2022-11-02T18:30:46.875Z,1003.66
2022-11-02T18:35:46.844Z,1003.66
2022-11-02T18:40:46.805Z,1003.59
2022-11-02T18:45:48.469Z,1003.50
2022-11-02T18:50:46.758Z,1003.50
2022-11-02T18:55:46.608Z,1003.44
2022-11-02T19:00:46.934Z,1003.47
2022-11-02T19:05:46.687Z,1003.42
2022-11-02T19:10:46.488Z,1003.41
2022-11-02T19:15:46.525Z,1003.35
2022-11-02T19:20:46.721Z,1003.29
2022-11-02T19:25:46.496Z,1003.38
2022-11-02T19:30:46.301Z,1003.40
2022-11-02T19:35:46.238Z,1003.33
2022-11-02T19:40:47.358Z,1003.14
2022-11-02T19:45:48.180Z,1003.04
2022-11-02T19:50:47.200Z,1003.07
2022-11-02T19:55:45.997Z,1002.96
2022-11-02T20:00:47.173Z,1002.89
2022-11-02T20:05:45.838Z,1002.80
2022-11-02T20:10:47.027Z,1002.73
2022-11-02T20:15:45.722Z,1002.63
2022-11-02T20:20:45.688Z,1002.60
2022-11-02T20:25:47.073Z,1002.45
2022-11-02T20:30:45.859Z,1002.53
2022-11-02T20:35:45.520Z,1002.40
2022-11-02T20:40:47.532Z,1002.46
2022-11-02T20:45:45.437Z,1002.44
2022-11-02T20:50:45.481Z,1002.41
2022-11-02T20:55:45.459Z,1002.32
2022-11-02T21:00:45.529Z,1002.31
2022-11-02T21:05:45.284Z,1002.18
2022-11-02T21:10:45.468Z,1002.10
2022-11-02T21:15:45.318Z,1002.08
2022-11-02T21:20:45.136Z,1002.07
2022-11-02T21:25:44.982Z,1001.98
2022-11-02T21:30:45.014Z,1002.00
2022-11-02T21:35:46.197Z,1001.95
2022-11-02T21:40:44.805Z,1001.95
2022-11-02T21:45:45.260Z,1001.85
2022-11-02T21:50:44.613Z,1001.85
2022-11-02T21:55:45.530Z,1001.84
2022-11-02T22:00:53.991Z,1001.79
2022-11-02T22:05:44.543Z,1001.80
2022-11-02T22:10:44.615Z,1001.73
2022-11-02T22:15:44.415Z,1001.74
2022-11-02T22:20:44.449Z,1001.72
2022-11-02T22:25:44.398Z,1001.68
2022-11-02T22:30:45.271Z,1001.56
2022-11-02T22:35:44.544Z,1001.50
2022-11-02T22:40:44.635Z,1001.39
2022-11-02T22:45:44.124Z,1001.36
2022-11-02T22:50:44.156Z,1001.22
2022-11-02T22:55:44.253Z,1001.04
2022-11-02T23:00:44.152Z,1000.95
2022-11-02T23:05:43.936Z,1000.93
2022-11-02T23:10:43.913Z,1000.85
2022-11-02T23:15:43.670Z,1000.84
2022-11-02T23:20:43.615Z,1000.73
2022-11-02T23:25:43.692Z,1000.76
2022-11-02T23:30:43.559Z,1000.68
2022-11-02T23:35:43.550Z,1000.62
2022-11-02T23:40:43.645Z,1000.48
2022-11-02T23:45:43.495Z,1000.45
2022-11-02T23:50:43.355Z,1000.41
2022-11-02T23:55:43.467Z,1000.37
